YRBH weather

Royal Brisbane Hospital Helipad Charlie
Brisbane, Queensland, Australia

Public forecast

Using degrees Celsius for public forecast. Weather courtesy of forecast.io.

Closest aviation weather report (METAR) to Royal Brisbane Hospital Helipad Charlie

Closest report is Brisbane International Airport, 6.2 nm (11.5 km) NE. Retrieved 2020/05/29 14:00 UTC (22 minutes ago):

YBBN 291400Z 21007KT CAVOK 15/10 Q1023 NOSIG

Closest aviation forecast (TAF) to Royal Brisbane Hospital Helipad Charlie

Closest forecast is Brisbane International Airport, 6.2 nm (11.5 km) NE. Retrieved 2020/05/29 12:00 UTC (2 hours ago):

TAF YBBN 291107Z 2912/3018 19007KT 9999 SCT030 FM292300 15012KT 9999 -SHRA SCT030 FM300200 13014KT 9999 FEW040 FM301000 20006KT 9999 SCT030